Time;durP1;ratioP1;P1;durP2;ratioP2;P2;SDS_P1;SDS_P2;PMS_P1;PMS_P2;Temp;Humidity;BMP_temperature;BMP_pressure;BME280_temperature;BME280_humidity;BME280_pressure;Samples;Min_cycle;Max_cycle;Signal;HPM_P1;HPM_P2
2023/07/04 00:00:13;;;;;;;10.23;4.72;;;;;;;16.66;64.87;95943.69;2115019;28;20062;-54
2023/07/04 00:01:21;;;;;;;9.57;4.55;;;;;;;16.74;65.68;95956.25;2115258;28;20051;-55
2023/07/04 00:02:22;;;;;;;10.70;4.65;;;;;;;16.72;64.80;95952.91;2114998;28;20039;-54
2023/07/04 00:03:24;;;;;;;9.60;4.85;;;;;;;16.71;64.25;95949.44;2114804;28;20058;-55
2023/07/04 00:04:27;;;;;;;11.98;5.75;;;;;;;16.71;65.27;95949.44;2115102;28;20047;-55
2023/07/04 00:05:28;;;;;;;10.35;4.88;;;;;;;16.70;64.99;95945.13;2113843;28;20052;-54
2023/07/04 00:06:29;;;;;;;10.85;4.80;;;;;;;16.69;64.83;95947.88;2114335;28;20051;-54
2023/07/04 00:07:34;;;;;;;10.35;4.93;;;;;;;16.70;65.25;95952.19;2113852;28;20063;-54
2023/07/04 00:08:35;;;;;;;10.55;4.78;;;;;;;16.67;65.23;95953.22;2114111;28;20414;-54
2023/07/04 00:09:36;;;;;;;11.43;5.32;;;;;;;16.68;66.01;95951.44;2113876;28;20051;-54
2023/07/04 00:10:38;;;;;;;9.15;4.85;;;;;;;16.68;66.26;95954.94;2114327;28;20056;-54
2023/07/04 00:11:39;;;;;;;9.30;4.63;;;;;;;16.68;65.30;95960.16;2105261;28;20419;-55
2023/07/04 00:12:40;;;;;;;9.48;4.85;;;;;;;16.68;67.11;95961.94;2105173;28;20079;-54
2023/07/04 00:13:41;;;;;;;10.82;5.00;;;;;;;16.59;65.53;95945.09;2114278;28;20051;-54
2023/07/04 00:14:44;;;;;;;11.73;4.63;;;;;;;16.67;65.21;95958.47;2114290;28;20052;-56
2023/07/04 00:15:45;;;;;;;9.75;4.88;;;;;;;16.66;65.66;95972.53;2114199;28;20075;-54
2023/07/04 00:16:47;;;;;;;9.25;4.60;;;;;;;16.67;65.08;95966.34;2105130;28;20048;-54
2023/07/04 00:17:48;;;;;;;6.50;4.75;;;;;;;16.66;65.39;95967.31;2105338;28;20064;-54
2023/07/04 00:18:50;;;;;;;9.77;4.22;;;;;;;16.67;66.08;95971.59;2114659;28;20395;-54
2023/07/04 00:19:51;;;;;;;8.13;4.28;;;;;;;16.62;65.61;95965.00;2114272;28;20063;-55
2023/07/04 00:20:54;;;;;;;11.27;5.20;;;;;;;16.54;66.68;95963.78;2114664;28;20046;-54
2023/07/04 00:21:55;;;;;;;10.82;4.90;;;;;;;16.46;69.55;95968.72;2114890;28;20533;-55
2023/07/04 00:22:59;;;;;;;10.30;5.30;;;;;;;16.36;69.75;95967.72;2114702;28;20039;-54
2023/07/04 00:24:00;;;;;;;10.25;4.97;;;;;;;16.24;70.20;95964.16;2114882;28;20035;-55
2023/07/04 00:25:01;;;;;;;10.95;5.13;;;;;;;16.13;70.04;95964.06;2114940;28;20035;-54
2023/07/04 00:26:04;;;;;;;8.40;4.53;;;;;;;16.00;71.60;95964.09;2115002;28;20491;-54
2023/07/04 00:27:06;;;;;;;9.43;5.18;;;;;;;15.90;72.22;95970.88;2114829;28;20054;-54
2023/07/04 00:28:08;;;;;;;9.38;4.80;;;;;;;15.81;73.05;95969.75;2105019;28;20094;-54
2023/07/04 00:29:09;;;;;;;9.85;5.05;;;;;;;15.63;73.96;95947.41;2105393;28;20443;-53
2023/07/04 00:30:12;;;;;;;9.98;5.38;;;;;;;15.64;74.19;95965.63;2115604;28;20055;-54
2023/07/04 00:31:15;;;;;;;7.78;4.95;;;;;;;15.63;75.53;95968.34;2107184;28;20047;-54
2023/07/04 00:32:16;;;;;;;12.25;5.53;;;;;;;15.56;75.30;95973.19;2107651;28;20086;-55
2023/07/04 00:33:18;;;;;;;8.15;5.32;;;;;;;15.39;75.46;95961.19;2107209;28;20047;-54
2023/07/04 00:34:20;;;;;;;6.63;4.68;;;;;;;15.43;76.37;95983.63;2099278;28;20055;-54
2023/07/04 00:35:22;;;;;;;11.23;5.75;;;;;;;15.39;78.15;95978.69;2106425;28;20066;-54
2023/07/04 00:36:23;;;;;;;9.40;5.47;;;;;;;15.35;79.27;95980.69;2107218;28;20044;-54
2023/07/04 00:37:24;;;;;;;12.50;5.47;;;;;;;15.29;79.03;95981.09;2106662;28;20059;-55
2023/07/04 00:38:25;;;;;;;11.48;5.85;;;;;;;15.23;79.44;95981.47;2106640;28;20047;-55
2023/07/04 00:39:26;;;;;;;14.50;5.40;;;;;;;15.22;79.79;95987.66;2106909;28;20086;-55
2023/07/04 00:40:27;;;;;;;9.70;5.50;;;;;;;15.16;79.30;95983.69;2098038;28;20436;-54
2023/07/04 00:41:28;;;;;;;11.30;5.75;;;;;;;15.12;79.43;95981.34;2106607;28;20349;-54
2023/07/04 00:42:35;;;;;;;9.27;4.70;;;;;;;15.15;78.58;95987.22;2107406;28;20054;-54
2023/07/04 00:43:59;;;;;;;10.18;5.00;;;;;;;15.08;79.13;95987.75;2108267;28;20059;-54
2023/07/04 00:45:09;;;;;;;12.40;5.63;;;;;;;14.98;79.86;95975.25;2107534;28;20040;-53
2023/07/04 00:46:14;;;;;;;9.18;4.43;;;;;;;15.02;79.48;95981.09;2100268;28;20036;-54
2023/07/04 00:47:21;;;;;;;11.80;4.93;;;;;;;14.97;79.32;95997.13;2099902;28;20056;-54
2023/07/04 00:48:22;;;;;;;8.63;5.10;;;;;;;14.97;79.22;95994.50;2107912;28;20058;-54
2023/07/04 00:49:43;;;;;;;12.27;5.15;;;;;;;14.94;79.09;95999.06;2098281;28;20377;-54
2023/07/04 00:50:45;;;;;;;10.65;5.13;;;;;;;14.80;79.70;95984.28;2087666;28;20057;-54
2023/07/04 00:52:07;;;;;;;11.75;5.50;;;;;;;14.83;80.19;96002.38;2083150;28;20540;-54
2023/07/04 00:53:09;;;;;;;11.32;5.78;;;;;;;14.81;80.78;96004.25;2090180;28;20039;-54
2023/07/04 00:54:10;;;;;;;10.05;5.35;;;;;;;14.75;80.99;95995.03;2106690;28;20175;-54
2023/07/04 00:55:11;;;;;;;9.55;5.55;;;;;;;14.76;81.97;96001.94;2107265;28;20040;-54
2023/07/04 00:56:12;;;;;;;9.63;5.30;;;;;;;14.68;82.41;95996.34;2115616;28;20062;-54
2023/07/04 00:57:14;;;;;;;11.30;5.75;;;;;;;14.66;83.01;96000.84;2115485;28;20093;-54
2023/07/04 00:58:16;;;;;;;10.48;5.20;;;;;;;14.63;83.32;95989.75;2107233;28;20047;-54
2023/07/04 00:59:20;;;;;;;9.52;5.18;;;;;;;14.67;84.10;95999.88;2107533;28;20059;-54
2023/07/04 01:00:23;;;;;;;12.75;5.30;;;;;;;14.58;84.19;96000.50;2115316;28;20058;-54
2023/07/04 01:01:24;;;;;;;9.95;5.60;;;;;;;14.52;84.52;96006.06;2115122;28;20055;-54
2023/07/04 01:02:30;;;;;;;9.80;5.25;;;;;;;14.48;84.04;96001.97;2106542;28;20052;-54
2023/07/04 01:03:32;;;;;;;11.75;5.00;;;;;;;14.50;85.29;95993.09;2107442;28;20060;-54
2023/07/04 01:04:33;;;;;;;10.32;4.70;;;;;;;14.47;84.97;95992.47;2106970;28;20070;-54
2023/07/04 01:06:04;;;;;;;10.88;5.30;;;;;;;14.37;85.60;95976.50;2098404;28;20049;-54
2023/07/04 01:07:09;;;;;;;15.30;6.03;;;;;;;14.42;86.27;95990.13;2102684;28;20060;-54
2023/07/04 01:08:38;;;;;;;10.52;5.90;;;;;;;14.42;85.98;96000.56;2098863;28;20068;-54
2023/07/04 01:09:39;;;;;;;11.55;4.88;;;;;;;14.36;86.18;96002.75;2085994;28;20051;-54
2023/07/04 01:10:42;;;;;;;10.57;5.63;;;;;;;14.20;86.22;95982.78;2098232;28;20139;-54
2023/07/04 01:11:44;;;;;;;11.88;5.95;;;;;;;14.26;86.84;96005.91;2097851;28;20119;-54
2023/07/04 01:12:46;;;;;;;11.10;5.60;;;;;;;14.25;87.77;96006.84;2082242;28;20377;-54
2023/07/04 01:13:47;;;;;;;15.18;5.85;;;;;;;14.19;87.37;96009.81;2099229;28;20447;-54
2023/07/04 01:14:53;;;;;;;10.20;5.55;;;;;;;14.08;88.38;95991.38;2106337;28;20051;-54
2023/07/04 01:15:54;;;;;;;13.07;5.63;;;;;;;14.05;88.00;95995.00;2098832;28;20419;-54
2023/07/04 01:16:56;;;;;;;11.43;5.85;;;;;;;14.07;88.79;96002.75;2098720;28;20063;-55
2023/07/04 01:17:57;;;;;;;11.05;6.22;;;;;;;13.98;88.85;96005.91;2107146;28;20051;-55
2023/07/04 01:18:58;;;;;;;14.05;6.13;;;;;;;14.04;89.24;96018.59;2098518;28;20423;-55
2023/07/04 01:19:59;;;;;;;11.60;5.95;;;;;;;14.00;89.68;96011.88;2090396;28;20060;-54
2023/07/04 01:21:01;;;;;;;11.07;5.72;;;;;;;13.92;89.57;96006.28;2098578;28;20044;-54
2023/07/04 01:22:24;;;;;;;13.32;6.45;;;;;;;14.04;90.04;96029.88;2098400;28;20492;-54
2023/07/04 01:23:40;;;;;;;13.13;6.30;;;;;;;14.05;90.49;96025.50;2093435;28;20551;-55
2023/07/04 01:24:55;;;;;;;11.07;5.88;;;;;;;14.05;90.55;96025.50;2086076;28;20049;-55
2023/07/04 01:26:34;;;;;;;10.73;5.60;;;;;;;14.03;90.64;96033.44;2101099;28;20506;-55
2023/07/04 01:27:38;;;;;;;13.40;6.05;;;;;;;14.03;91.34;96043.03;2112786;28;20043;-54
2023/07/04 01:28:39;;;;;;;11.30;5.63;;;;;;;13.95;91.95;96034.81;2115456;28;20056;-54
2023/07/04 01:29:41;;;;;;;13.65;6.55;;;;;;;13.96;92.17;96042.56;2098660;28;20048;-54
2023/07/04 01:30:42;;;;;;;14.80;6.13;;;;;;;14.00;91.46;96049.25;2089966;28;20108;-54
2023/07/04 01:31:44;;;;;;;14.90;6.70;;;;;;;14.01;91.83;96045.75;2089868;28;20048;-54
2023/07/04 01:32:51;;;;;;;11.93;6.07;;;;;;;13.96;92.01;96053.00;2097929;28;20063;-54
2023/07/04 01:33:53;;;;;;;13.75;6.45;;;;;;;13.94;92.59;96061.84;2106996;28;20050;-54
2023/07/04 01:34:58;;;;;;;16.33;6.18;;;;;;;13.92;93.16;96063.72;2108070;28;20048;-55
2023/07/04 01:35:59;;;;;;;13.00;6.28;;;;;;;13.83;94.00;96060.72;2106787;28;20044;-54
2023/07/04 01:37:04;;;;;;;14.13;6.80;;;;;;;13.83;93.98;96063.34;2090316;28;20037;-54
2023/07/04 01:38:06;;;;;;;15.68;6.60;;;;;;;13.83;94.17;96057.28;2082112;28;20049;-54
2023/07/04 01:39:10;;;;;;;15.40;6.95;;;;;;;13.72;94.25;96044.84;2090704;28;20045;-54
2023/07/04 01:40:12;;;;;;;13.40;7.05;;;;;;;13.69;95.06;96052.88;2099102;28;20503;-54
2023/07/04 01:41:15;;;;;;;14.13;7.68;;;;;;;13.66;94.92;96047.84;2115794;28;20051;-54
2023/07/04 01:42:18;;;;;;;13.68;6.40;;;;;;;13.71;95.15;96057.97;2115824;28;20051;-54
2023/07/04 01:43:19;;;;;;;13.60;7.22;;;;;;;13.61;95.80;96040.28;2115795;28;20039;-54
2023/07/04 01:44:24;;;;;;;13.95;8.10;;;;;;;13.70;96.39;96054.53;2106134;28;20052;-54
2023/07/04 01:45:25;;;;;;;15.15;7.88;;;;;;;13.70;96.88;96053.72;2098457;28;20060;-54
2023/07/04 01:46:26;;;;;;;13.05;7.53;;;;;;;13.71;96.66;96057.97;2106952;28;20095;-54
2023/07/04 01:47:28;;;;;;;17.40;8.13;;;;;;;13.61;96.53;96042.88;2106955;28;20052;-54
2023/07/04 01:48:29;;;;;;;14.82;7.40;;;;;;;13.68;96.91;96059.88;2098248;28;20055;-54
2023/07/04 01:49:30;;;;;;;17.35;7.75;;;;;;;13.67;96.96;96049.50;2106092;28;20056;-54
2023/07/04 01:50:31;;;;;;;14.50;7.40;;;;;;;13.63;97.24;96045.38;2106291;28;20052;-54
2023/07/04 01:51:38;;;;;;;15.05;7.53;;;;;;;13.65;97.46;96041.75;2106940;28;20040;-54
2023/07/04 01:52:39;;;;;;;11.38;7.07;;;;;;;13.71;97.37;96058.81;2115827;28;20047;-54
2023/07/04 01:53:40;;;;;;;16.27;6.47;;;;;;;13.73;97.36;96058.75;2106999;28;20397;-54
2023/07/04 01:54:42;;;;;;;13.95;7.25;;;;;;;13.72;97.37;96060.53;2106953;28;20040;-54
2023/07/04 01:55:43;;;;;;;13.05;7.25;;;;;;;13.71;97.53;96064.03;2106690;28;20441;-54
2023/07/04 01:56:47;;;;;;;14.45;7.45;;;;;;;13.78;98.11;96062.75;2098556;28;20044;-54
2023/07/04 01:57:49;;;;;;;13.43;7.60;;;;;;;13.81;98.38;96064.34;2098227;28;20427;-54
2023/07/04 01:58:50;;;;;;;13.52;7.45;;;;;;;13.72;99.01;96054.47;2098337;28;20044;-54
2023/07/04 01:59:51;;;;;;;14.55;7.18;;;;;;;13.77;98.60;96055.88;2098268;28;20044;-54
2023/07/04 02:00:52;;;;;;;12.52;7.40;;;;;;;13.79;98.90;96053.16;2106922;28;20050;-54
2023/07/04 02:01:53;;;;;;;11.82;6.88;;;;;;;13.76;98.63;96051.56;2115067;28;20054;-54
2023/07/04 02:02:55;;;;;;;13.55;7.20;;;;;;;13.62;98.59;96034.09;2115072;28;20051;-54
2023/07/04 02:03:56;;;;;;;17.92;8.48;;;;;;;13.74;98.44;96053.44;2115639;28;20450;-54
2023/07/04 02:04:57;;;;;;;14.75;6.82;;;;;;;13.72;98.42;96060.53;2106018;28;20044;-54
2023/07/04 02:05:58;;;;;;;13.48;7.78;;;;;;;13.74;98.17;96060.41;2106710;28;20047;-54
2023/07/04 02:06:59;;;;;;;17.77;7.68;;;;;;;13.74;98.75;96058.66;2106086;28;20067;-54
2023/07/04 02:08:00;;;;;;;11.60;6.70;;;;;;;13.65;98.60;96039.16;2097502;28;20511;-54
2023/07/04 02:09:01;;;;;;;12.80;7.38;;;;;;;13.76;97.82;96051.56;2106062;28;20051;-54
2023/07/04 02:10:03;;;;;;;13.13;7.55;;;;;;;13.76;98.50;96051.56;2106043;28;20056;-54
2023/07/04 02:11:04;;;;;;;14.27;7.50;;;;;;;13.80;98.47;96057.47;2097715;28;20111;-54
2023/07/04 02:12:05;;;;;;;11.57;7.32;;;;;;;13.71;98.55;96037.94;2097950;28;20056;-54
2023/07/04 02:13:06;;;;;;;14.30;6.43;;;;;;;13.81;98.93;96052.13;2105943;28;20048;-54
2023/07/04 02:14:07;;;;;;;16.52;7.72;;;;;;;13.86;98.77;96057.94;2106193;28;20514;-54
2023/07/04 02:15:09;;;;;;;15.10;7.78;;;;;;;13.86;99.53;96055.31;2106784;28;20055;-54
2023/07/04 02:16:10;;;;;;;13.10;7.53;;;;;;;13.85;99.38;96053.66;2097769;28;20420;-54
2023/07/04 02:17:11;;;;;;;17.42;8.15;;;;;;;13.86;99.43;96050.09;2106568;28;20043;-54
2023/07/04 02:18:12;;;;;;;15.80;7.60;;;;;;;13.87;99.54;96051.78;2114905;28;20056;-54
2023/07/04 02:19:13;;;;;;;13.63;7.65;;;;;;;13.87;99.53;96056.16;2115720;28;20043;-54
2023/07/04 02:20:16;;;;;;;17.63;8.82;;;;;;;13.78;99.74;96033.22;2106937;28;20519;-54
2023/07/04 02:21:18;;;;;;;11.77;7.28;;;;;;;13.88;99.43;96053.47;2106877;28;20052;-54
2023/07/04 02:22:19;;;;;;;13.48;7.55;;;;;;;13.82;99.52;96032.94;2115617;28;20106;-54
2023/07/04 02:23:20;;;;;;;16.75;8.55;;;;;;;13.90;99.65;96048.16;2115772;28;20047;-54
2023/07/04 02:24:21;;;;;;;14.18;8.13;;;;;;;13.90;99.89;96045.56;2115073;28;20051;-53
2023/07/04 02:25:22;;;;;;;16.67;8.38;;;;;;;13.91;100.00;96049.84;2105846;28;20451;-53
2023/07/04 02:26:23;;;;;;;13.55;8.18;;;;;;;13.90;100.00;96048.16;2097904;28;20059;-54
2023/07/04 02:27:25;;;;;;;15.00;7.75;;;;;;;13.89;100.00;96049.06;2106500;28;20048;-54
2023/07/04 02:28:26;;;;;;;15.00;7.60;;;;;;;13.88;99.81;96044.78;2106478;28;20039;-53
2023/07/04 02:29:29;;;;;;;12.65;7.03;;;;;;;13.87;99.79;96045.72;2106430;28;20051;-53
2023/07/04 02:30:30;;;;;;;15.98;8.30;;;;;;;13.85;99.63;96040.59;2105877;28;20064;-53
2023/07/04 02:31:31;;;;;;;16.60;8.45;;;;;;;13.83;99.67;96047.66;2106413;28;20052;-54
2023/07/04 02:32:34;;;;;;;16.02;8.73;;;;;;;13.84;99.62;96048.50;2105959;28;20055;-53
2023/07/04 02:33:36;;;;;;;14.88;7.88;;;;;;;13.69;99.50;96018.94;2106402;28;20044;-53
2023/07/04 02:34:37;;;;;;;17.25;8.93;;;;;;;13.74;99.47;96043.00;2105711;28;20067;-53
2023/07/04 02:35:38;;;;;;;15.15;8.38;;;;;;;13.72;99.26;96034.41;2098034;28;20535;-54
2023/07/04 02:36:39;;;;;;;12.60;7.60;;;;;;;13.71;99.90;96035.34;2106748;28;20160;-53
2023/07/04 02:37:40;;;;;;;12.48;7.18;;;;;;;13.69;99.58;96039.81;2113841;28;20063;-54
2023/07/04 02:38:42;;;;;;;14.68;7.70;;;;;;;13.67;99.74;96044.28;2105778;28;20503;-53
2023/07/04 02:39:43;;;;;;;14.23;8.20;;;;;;;13.63;99.43;96040.16;2098072;28;20049;-53
2023/07/04 02:40:45;;;;;;;16.40;8.38;;;;;;;13.52;99.90;96027.75;2106384;28;20043;-53
2023/07/04 02:41:47;;;;;;;18.35;7.72;;;;;;;13.60;100.00;96038.56;2105698;28;20061;-53
2023/07/04 02:42:48;;;;;;;15.20;8.23;;;;;;;13.59;100.00;96039.50;2098263;28;20393;-53
2023/07/04 02:43:50;;;;;;;17.33;8.30;;;;;;;13.53;100.00;96039.06;2097130;28;20060;-53
2023/07/04 02:44:52;;;;;;;16.83;7.45;;;;;;;13.50;100.00;96041.81;2097567;28;20052;-54
2023/07/04 02:45:53;;;;;;;13.68;7.57;;;;;;;13.45;100.00;96042.94;2105762;28;20488;-53
2023/07/04 02:46:54;;;;;;;12.90;8.52;;;;;;;13.48;100.00;96049.75;2114789;28;20047;-54
2023/07/04 02:47:56;;;;;;;16.20;8.77;;;;;;;13.42;100.00;96042.28;2097217;28;20044;-53
2023/07/04 02:48:57;;;;;;;13.88;8.00;;;;;;;13.31;100.00;96035.06;2089831;28;20390;-53
2023/07/04 02:49:58;;;;;;;16.30;8.50;;;;;;;13.40;100.00;96050.19;2097236;28;20056;-55
2023/07/04 02:51:00;;;;;;;17.48;8.23;;;;;;;13.41;100.00;96045.78;2097864;28;20174;-55
2023/07/04 02:52:01;;;;;;;18.35;8.02;;;;;;;13.33;100.00;96033.19;2098195;28;20412;-55
2023/07/04 02:53:03;;;;;;;15.15;8.55;;;;;;;13.41;100.00;96045.78;2097149;28;20051;-55
2023/07/04 02:54:04;;;;;;;15.95;9.25;;;;;;;13.40;100.00;96050.19;2106323;28;20040;-55
2023/07/04 02:55:07;;;;;;;17.95;8.40;;;;;;;13.38;100.00;96044.19;2106029;28;20506;-55
2023/07/04 02:56:11;;;;;;;15.57;8.80;;;;;;;13.42;100.00;96044.88;2097861;28;20054;-55
2023/07/04 02:57:15;;;;;;;13.18;8.32;;;;;;;13.40;100.00;96041.53;2098127;28;20474;-55
2023/07/04 02:58:18;;;;;;;15.73;8.35;;;;;;;13.37;100.00;96050.34;2097919;28;20075;-55
2023/07/04 02:59:19;;;;;;;16.52;8.63;;;;;;;13.36;100.00;96035.63;2097873;28;20063;-55
2023/07/04 03:00:20;;;;;;;14.85;8.85;;;;;;;13.37;100.00;96036.47;2097724;28;20060;-55
2023/07/04 03:01:23;;;;;;;14.70;7.35;;;;;;;13.40;100.00;96034.53;2106197;28;20054;-54
2023/07/04 03:02:25;;;;;;;17.13;8.85;;;;;;;13.39;100.00;96040.69;2097838;28;20052;-54
2023/07/04 03:03:27;;;;;;;13.45;8.38;;;;;;;13.32;100.00;96026.31;2097833;28;20055;-55
2023/07/04 03:04:29;;;;;;;19.92;8.95;;;;;;;13.37;100.00;96037.31;2105484;28;20052;-54
2023/07/04 03:05:30;;;;;;;13.90;8.00;;;;;;;13.38;100.00;96038.97;2105183;28;20052;-54
2023/07/04 03:06:32;;;;;;;15.02;8.70;;;;;;;13.38;100.00;96036.38;2097849;28;20052;-54
2023/07/04 03:07:33;;;;;;;13.70;8.50;;;;;;;13.39;100.00;96038.06;2105416;28;20383;-55
2023/07/04 03:08:34;;;;;;;16.50;8.63;;;;;;;13.35;100.00;96033.13;2097812;28;20044;-54
2023/07/04 03:09:36;;;;;;;20.95;9.07;;;;;;;13.37;100.00;96044.31;2097742;28;20052;-54
2023/07/04 03:10:38;;;;;;;16.33;8.77;;;;;;;13.38;100.00;96053.81;2097827;28;20437;-54
2023/07/04 03:11:39;;;;;;;15.95;8.90;;;;;;;13.37;100.00;96049.53;2105171;28;20082;-54
2023/07/04 03:12:41;;;;;;;15.82;8.05;;;;;;;13.37;100.00;96050.34;2105435;28;20067;-54
2023/07/04 03:13:42;;;;;;;20.10;9.50;;;;;;;13.38;100.00;96059.84;2105423;28;20059;-54
2023/07/04 03:14:44;;;;;;;16.25;8.65;;;;;;;13.40;100.00;96068.44;2115133;28;20088;-55
2023/07/04 03:15:45;;;;;;;15.15;8.80;;;;;;;13.42;100.00;96058.75;2105077;28;20055;-55
2023/07/04 03:16:46;;;;;;;15.52;8.48;;;;;;;13.35;100.00;96046.16;2106453;28;20411;-55
2023/07/04 03:17:48;;;;;;;13.55;8.32;;;;;;;13.47;100.00;96063.69;2114250;28;20121;-54
2023/07/04 03:18:50;;;;;;;15.65;8.60;;;;;;;13.44;100.00;96056.91;2105968;28;20051;-54
2023/07/04 03:19:51;;;;;;;14.95;8.05;;;;;;;13.51;100.00;96062.59;2106053;28;20044;-54
2023/07/04 03:20:53;;;;;;;15.70;7.15;;;;;;;13.46;100.00;96060.25;2097863;28;20049;-55
2023/07/04 03:21:54;;;;;;;14.02;7.90;;;;;;;13.50;100.00;96066.16;2097196;28;20052;-54
2023/07/04 03:22:55;;;;;;;15.02;8.35;;;;;;;13.52;100.00;96060.81;2097121;28;20055;-54
2023/07/04 03:23:57;;;;;;;13.80;7.68;;;;;;;13.54;100.00;96067.63;2097873;28;20048;-54
2023/07/04 03:24:59;;;;;;;14.00;7.55;;;;;;;13.56;100.00;96057.97;2097555;28;20045;-55
2023/07/04 03:26:00;;;;;;;15.23;8.05;;;;;;;13.58;100.00;96058.72;2105304;28;20040;-54
2023/07/04 03:27:04;;;;;;;16.23;8.40;;;;;;;13.54;100.00;96046.75;2097692;28;20431;-55
2023/07/04 03:28:06;;;;;;;15.73;8.23;;;;;;;13.65;100.00;96056.56;2097326;28;20064;-54
2023/07/04 03:29:07;;;;;;;14.15;7.55;;;;;;;13.65;100.00;96054.81;2106262;28;20376;-54
2023/07/04 03:30:10;;;;;;;16.80;8.00;;;;;;;13.67;100.00;96046.91;2105198;28;20403;-54
2023/07/04 03:31:12;;;;;;;15.98;7.78;;;;;;;13.69;100.00;96047.66;2105451;28;20051;-54
2023/07/04 03:32:13;;;;;;;15.23;8.00;;;;;;;13.67;100.00;96041.69;2105375;28;20055;-54
2023/07/04 03:33:14;;;;;;;16.73;7.68;;;;;;;13.77;100.00;96050.66;2105703;28;20056;-54
2023/07/04 03:34:16;;;;;;;12.70;7.55;;;;;;;13.81;100.00;96054.75;2105957;28;20048;-54
2023/07/04 03:35:17;;;;;;;16.08;8.15;;;;;;;13.81;100.00;96049.53;2097807;28;20178;-55
2023/07/04 03:36:18;;;;;;;13.52;7.30;;;;;;;13.85;100.00;96055.41;2097556;28;20052;-54
2023/07/04 03:37:19;;;;;;;14.02;7.32;;;;;;;13.83;100.00;96052.88;2105296;28;20047;-55
2023/07/04 03:38:20;;;;;;;14.25;7.40;;;;;;;13.84;100.00;96051.94;2115025;28;20047;-54
2023/07/04 03:39:22;;;;;;;11.93;6.80;;;;;;;13.88;100.00;96056.06;2115107;28;20061;-54
2023/07/04 03:40:23;;;;;;;16.95;7.53;;;;;;;13.86;100.00;96057.09;2105792;28;20419;-54
2023/07/04 03:41:24;;;;;;;12.40;8.07;;;;;;;13.86;100.00;96062.31;2097830;28;20059;-55
2023/07/04 03:42:26;;;;;;;12.70;7.05;;;;;;;13.87;100.00;96057.00;2106026;28;20052;-54
2023/07/04 03:43:27;;;;;;;15.68;7.97;;;;;;;13.88;100.00;96053.47;2114597;28;20139;-54
2023/07/04 03:44:28;;;;;;;15.15;7.55;;;;;;;13.89;100.00;96051.69;2105184;28;20055;-54
2023/07/04 03:45:29;;;;;;;15.90;7.35;;;;;;;13.81;100.00;96040.84;2097784;28;20041;-55
2023/07/04 03:46:30;;;;;;;11.52;7.57;;;;;;;13.89;100.00;96052.50;2105793;28;20122;-55
2023/07/04 03:47:31;;;;;;;11.75;6.95;;;;;;;13.90;100.00;96059.44;2114975;28;20043;-54
2023/07/04 03:48:33;;;;;;;12.48;7.00;;;;;;;13.93;100.00;96062.81;2115009;28;20051;-54
2023/07/04 03:49:34;;;;;;;11.85;6.80;;;;;;;13.95;100.00;96071.34;2106171;28;20048;-54
2023/07/04 03:50:35;;;;;;;13.98;6.90;;;;;;;13.94;100.00;96064.47;2105960;28;20415;-54
2023/07/04 03:51:36;;;;;;;13.50;7.15;;;;;;;13.89;100.00;96062.13;2114369;28;20062;-54
2023/07/04 03:52:37;;;;;;;12.38;7.05;;;;;;;13.93;100.00;96066.25;2115106;28;20052;-54
2023/07/04 03:53:38;;;;;;;12.43;7.50;;;;;;;13.96;100.00;96067.84;2114196;28;20053;-54
2023/07/04 03:54:39;;;;;;;10.63;6.95;;;;;;;13.92;100.00;96054.09;2105875;28;20044;-54
2023/07/04 03:55:40;;;;;;;12.60;7.03;;;;;;;13.94;100.00;96067.09;2104927;28;20063;-55
2023/07/04 03:56:42;;;;;;;12.85;6.80;;;;;;;13.94;100.00;96061.84;2114075;28;20060;-54
2023/07/04 03:57:43;;;;;;;14.93;6.90;;;;;;;13.96;100.00;96057.41;2113938;28;20139;-54
2023/07/04 03:58:44;;;;;;;16.27;7.25;;;;;;;13.96;100.00;96055.63;2114870;28;20051;-54
2023/07/04 03:59:45;;;;;;;13.00;6.65;;;;;;;13.94;100.00;96056.63;2114835;28;20400;-54
2023/07/04 04:00:47;;;;;;;12.13;6.32;;;;;;;13.89;100.00;96056.91;2115142;28;20050;-55
2023/07/04 04:01:48;;;;;;;10.70;6.40;;;;;;;13.83;100.00;96045.06;2114298;28;20426;-54
2023/07/04 04:02:49;;;;;;;9.52;5.97;;;;;;;13.89;100.00;96059.50;2114849;28;20039;-54
2023/07/04 04:03:53;;;;;;;11.45;6.50;;;;;;;13.77;100.00;96042.00;2114983;28;20036;-54
2023/07/04 04:04:54;;;;;;;10.60;6.70;;;;;;;13.83;100.00;96060.72;2106531;28;20048;-54
2023/07/04 04:05:55;;;;;;;12.40;6.47;;;;;;;13.86;100.00;96060.53;2107607;28;20384;-54
2023/07/04 04:06:58;;;;;;;10.40;6.22;;;;;;;13.80;100.00;96058.28;2115893;28;20051;-55
2023/07/04 04:07:59;;;;;;;15.45;6.07;;;;;;;13.84;100.00;96059.78;2116168;28;20047;-54
2023/07/04 04:09:00;;;;;;;15.00;6.75;;;;;;;13.79;100.00;96047.94;2115962;28;20050;-54
2023/07/04 04:10:01;;;;;;;14.25;7.35;;;;;;;13.83;100.00;96065.94;2116655;28;20042;-54
2023/07/04 04:11:03;;;;;;;15.15;7.13;;;;;;;13.82;100.00;96069.50;2116425;28;20413;-55
2023/07/04 04:12:05;;;;;;;11.35;6.47;;;;;;;13.80;100.00;96070.50;2116570;28;20062;-54
2023/07/04 04:13:06;;;;;;;12.52;6.72;;;;;;;13.65;100.00;96044.38;2116723;28;20039;-54
2023/07/04 04:14:08;;;;;;;9.88;6.32;;;;;;;13.63;100.00;96048.00;2116635;28;20050;-54
2023/07/04 04:15:09;;;;;;;13.32;6.55;;;;;;;13.70;100.00;96053.72;2115950;28;20060;-54
2023/07/04 04:16:10;;;;;;;13.88;6.82;;;;;;;13.67;100.00;96057.34;2115929;28;20051;-54
2023/07/04 04:17:11;;;;;;;14.27;7.53;;;;;;;13.71;100.00;96050.16;2116752;28;20109;-54
2023/07/04 04:18:12;;;;;;;11.75;6.75;;;;;;;13.67;100.00;96046.91;2116589;28;20043;-54
2023/07/04 04:19:14;;;;;;;14.88;6.30;;;;;;;13.65;100.00;96059.19;2115862;28;20059;-54
2023/07/04 04:20:15;;;;;;;13.10;7.35;;;;;;;13.62;100.00;96060.19;2115532;28;20506;-54
2023/07/04 04:21:16;;;;;;;12.77;7.15;;;;;;;13.59;100.00;96067.38;2115874;28;20047;-54
2023/07/04 04:22:17;;;;;;;10.40;5.80;;;;;;;13.60;100.00;96066.44;2115921;28;20048;-54
2023/07/04 04:23:18;;;;;;;13.02;6.50;;;;;;;13.59;100.00;96070.00;2107629;28;20067;-54
2023/07/04 04:24:20;;;;;;;14.02;7.10;;;;;;;13.57;100.00;96072.66;2106628;28;20052;-55
2023/07/04 04:25:21;;;;;;;13.88;6.80;;;;;;;13.58;100.00;96073.50;2115545;28;20058;-54
2023/07/04 04:26:22;;;;;;;11.85;6.80;;;;;;;13.51;100.00;96056.56;2116508;28;20050;-56
2023/07/04 04:27:26;;;;;;;12.00;6.75;;;;;;;13.51;100.00;96046.13;2116619;28;20043;-55
2023/07/04 04:28:28;;;;;;;13.15;6.35;;;;;;;13.65;100.00;96061.78;2107198;28;20052;-54
2023/07/04 04:29:29;;;;;;;13.35;6.90;;;;;;;13.72;100.00;96070.13;2108118;28;20050;-54
2023/07/04 04:30:30;;;;;;;12.02;6.20;;;;;;;13.63;100.00;96053.22;2116453;28;20493;-54
2023/07/04 04:31:37;;;;;;;12.55;7.35;;;;;;;13.78;100.00;96073.19;2116404;28;20043;-54
2023/07/04 04:32:38;;;;;;;10.05;6.88;;;;;;;13.82;100.00;96076.47;2107091;28;20051;-54
2023/07/04 04:33:39;;;;;;;15.40;7.00;;;;;;;13.80;100.00;96078.34;2107289;28;20048;-54
2023/07/04 04:34:40;;;;;;;17.55;7.15;;;;;;;13.80;100.00;96073.97;2116367;28;20383;-54
2023/07/04 04:35:41;;;;;;;13.57;7.13;;;;;;;13.72;100.00;96063.13;2106640;28;20052;-54
2023/07/04 04:36:42;;;;;;;14.15;6.50;;;;;;;13.78;100.00;96075.81;2107481;28;20051;-54
2023/07/04 04:37:43;;;;;;;11.77;6.82;;;;;;;13.83;100.00;96079.00;2106781;28;20059;-54
2023/07/04 04:38:44;;;;;;;16.38;6.75;;;;;;;13.87;100.00;96080.50;2116453;28;20411;-54
2023/07/04 04:39:45;;;;;;;13.15;7.00;;;;;;;13.92;100.00;96080.22;2115588;28;20176;-54
2023/07/04 04:40:47;;;;;;;12.82;6.78;;;;;;;13.93;100.00;96084.53;2106315;28;20052;-54
2023/07/04 04:41:52;;;;;;;11.90;6.13;;;;;;;13.96;100.00;96086.13;2107326;28;20039;-54
2023/07/04 04:42:55;;;;;;;11.70;6.40;;;;;;;13.96;100.00;96081.72;2116505;28;20351;-54
2023/07/04 04:43:57;;;;;;;10.27;5.90;;;;;;;14.04;100.00;96083.88;2116411;28;20047;-54
2023/07/04 04:44:58;;;;;;;10.52;6.18;;;;;;;14.10;100.00;96081.72;2115745;28;20058;-54
2023/07/04 04:46:00;;;;;;;13.82;6.20;;;;;;;14.01;100.00;96061.41;2116340;28;20039;-54
2023/07/04 04:47:01;;;;;;;14.55;6.07;;;;;;;14.06;100.00;96066.34;2116674;28;20383;-55
2023/07/04 04:48:06;;;;;;;9.85;6.00;;;;;;;14.11;100.00;96059.94;2116424;28;20032;-54
2023/07/04 04:49:08;;;;;;;11.45;6.50;;;;;;;14.26;99.94;96079.03;2116457;28;20055;-54